Time;durP1;ratioP1;P1;durP2;ratioP2;P2;SDS_P1;SDS_P2;PMS_P1;PMS_P2;Temp;Humidity;BMP_temperature;BMP_pressure;BME280_temperature;BME280_humidity;BME280_pressure;Samples;Min_cycle;Max_cycle;Signal;HPM_P1;HPM_P2
2023/05/07 00:00:20;;;;;;;;;;;;;;;;;;4933503;29;1622;-57
2023/05/07 00:02:47;;;;;;;;;;;;;;;;;;4933345;29;1768;-58
2023/05/07 00:05:14;;;;;;;;;;;;;;;;;;4933564;29;1894;-46
2023/05/07 00:07:42;;;;;;;;;;;;;;;;;;4933604;29;1539;-56
2023/05/07 00:10:10;;;;;;;;;;;;;;;;;;4936781;29;2090;-59
2023/05/07 00:12:38;;;;;;;;;;;;;;;;;;4936754;29;1997;-48
2023/05/07 00:15:05;;;;;;;;;;;;;;;;;;4936542;29;1922;-58
2023/05/07 00:17:33;;;;;;;;;;;;;;;;;;4936817;29;1855;-57
2023/05/07 00:20:00;;;;;;;;;;;;;;;;;;4936626;29;1690;-58
2023/05/07 00:22:29;;;;;;;;;;;;;;;;;;4936761;29;1685;-49
2023/05/07 00:24:57;;;;;;;;;;;;;;;;;;4936545;29;2038;-57
2023/05/07 00:27:24;;;;;;;;;;;;;;;;;;4936538;29;2169;-58
2023/05/07 00:29:52;;;;;;;;;;;;;;;;;;4936264;29;1615;-58
2023/05/07 00:32:19;;;;;;;;;;;;;;;;;;4936760;29;1958;-55
2023/05/07 00:34:46;;;;;;;;;;;;;;;;;;4934978;29;2127;-45
2023/05/07 00:37:13;;;;;;;;;;;;;;;;;;4936692;29;2193;-58
2023/05/07 00:39:41;;;;;;;;;;;;;;;;;;4936471;29;2288;-52
2023/05/07 00:42:08;;;;;;;;;;;;;;;;;;4934932;29;1864;-51
2023/05/07 00:44:35;;;;;;;;;;;;;;;;;;4934987;29;2026;-54
2023/05/07 00:47:04;;;;;;;;;;;;;;;;;;4936145;29;2227;-51
2023/05/07 00:49:38;;;;;;;;;;;;;;;;;;4934185;29;1794;-58
2023/05/07 00:52:06;;;;;;;;;;;;;;;;;;4936094;29;1817;-57
2023/05/07 00:54:34;;;;;;;;;;;;;;;;;;4937783;29;1400;-53
2023/05/07 00:57:02;;;;;;;;;;;;;;;;;;4916794;29;2107;-57
2023/05/07 00:59:30;;;;;;;;;;;;;;;;;;4917075;29;1746;-56
2023/05/07 01:01:58;;;;;;;;;;;;;;;;;;4916933;29;2248;-56
2023/05/07 01:04:26;;;;;;;;;;;;;;;;;;4916825;29;2001;-48
2023/05/07 01:06:57;;;;;;;;;;;;;;;;;;4916876;29;1396;-55
2023/05/07 01:09:25;;;;;;;;;;;;;;;;;;4916723;29;2091;-58
2023/05/07 01:11:53;;;;;;;;;;;;;;;;;;4916508;29;2158;-58
2023/05/07 01:14:20;;;;;;;;;;;;;;;;;;4919466;29;1962;-57
2023/05/07 01:16:48;;;;;;;;;;;;;;;;;;4934460;29;2163;-59
2023/05/07 01:19:17;;;;;;;;;;;;;;;;;;4934560;29;1915;-59
2023/05/07 01:21:46;;;;;;;;;;;;;;;;;;4935853;29;2105;-59
2023/05/07 01:24:14;;;;;;;;;;;;;;;;;;4934367;29;2012;-59
2023/05/07 01:26:42;;;;;;;;;;;;;;;;;;4934167;29;2381;-50
2023/05/07 01:29:13;;;;;;;;;;;;;;;;;;4935389;29;1746;-53
2023/05/07 01:31:41;;;;;;;;;;;;;;;;;;4935560;29;1552;-59
2023/05/07 01:34:10;;;;;;;;;;;;;;;;;;4935587;29;2170;-52
2023/05/07 01:36:39;;;;;;;;;;;;;;;;;;4935090;29;1984;-59
2023/05/07 01:39:06;;;;;;;;;;;;;;;;;;4935324;29;1980;-59
2023/05/07 01:41:34;;;;;;;;;;;;;;;;;;4933895;29;1968;-58
2023/05/07 01:44:01;;;;;;;;;;;;;;;;;;4933850;29;2015;-50
2023/05/07 01:46:29;;;;;;;;;;;;;;;;;;4933965;29;1847;-51
2023/05/07 01:48:56;;;;;;;;;;;;;;;;;;4935045;29;2045;-59
2023/05/07 01:51:24;;;;;;;;;;;;;;;;;;4934803;29;1813;-56
2023/05/07 01:53:52;;;;;;;;;;;;;;;;;;4934144;29;1651;-48
2023/05/07 01:56:20;;;;;;;;;;;;;;;;;;4934911;29;2093;-58
2023/05/07 01:58:47;;;;;;;;;;;;;;;;;;4933530;29;2162;-60
2023/05/07 02:01:15;;;;;;;;;;;;;;;;;;4934599;29;1894;-59
2023/05/07 02:03:42;;;;;;;;;;;;;;;;;;4933236;29;1766;-59
2023/05/07 02:06:19;;;;;;;;;;;;;;;;;;4933621;29;2009;-58
2023/05/07 02:08:47;;;;;;;;;;;;;;;;;;4933491;29;2248;-57
2023/05/07 02:11:15;;;;;;;;;;;;;;;;;;4933144;29;2169;-49
2023/05/07 02:13:43;;;;;;;;;;;;;;;;;;4934672;29;1982;-58
2023/05/07 02:16:10;;;;;;;;;;;;;;;;;;4934361;29;1970;-58
2023/05/07 02:18:38;;;;;;;;;;;;;;;;;;4933417;29;1782;-58
2023/05/07 02:21:05;;;;;;;;;;;;;;;;;;4933200;29;1963;-50
2023/05/07 02:23:33;;;;;;;;;;;;;;;;;;4933140;29;1867;-59
2023/05/07 02:26:01;;;;;;;;;;;;;;;;;;4932326;29;1879;-59
2023/05/07 02:28:28;;;;;;;;;;;;;;;;;;4932815;29;1766;-59
2023/05/07 02:31:04;;;;;;;;;;;;;;;;;;4932474;29;1698;-59
2023/05/07 02:33:32;;;;;;;;;;;;;;;;;;4933089;29;1915;-59
2023/05/07 02:36:06;;;;;;;;;;;;;;;;;;4932886;29;1922;-59
2023/05/07 02:38:35;;;;;;;;;;;;;;;;;;4932847;29;1926;-59
2023/05/07 02:41:03;;;;;;;;;;;;;;;;;;4932581;29;1526;-56
2023/05/07 02:43:31;;;;;;;;;;;;;;;;;;4933009;29;2296;-54
2023/05/07 02:46:02;;;;;;;;;;;;;;;;;;4934104;29;2023;-59
2023/05/07 02:48:29;;;;;;;;;;;;;;;;;;4917209;29;1712;-55
2023/05/07 02:50:57;;;;;;;;;;;;;;;;;;4932739;29;1691;-58
2023/05/07 02:53:27;;;;;;;;;;;;;;;;;;4932876;29;2039;-48
2023/05/07 02:55:56;;;;;;;;;;;;;;;;;;4933961;29;1908;-51
2023/05/07 02:58:23;;;;;;;;;;;;;;;;;;4934252;29;2163;-55
2023/05/07 03:00:51;;;;;;;;;;;;;;;;;;4934038;29;1633;-59
2023/05/07 03:03:41;;;;;;;;;;;;;;;;;;4932497;29;1510;-52
2023/05/07 03:06:08;;;;;;;;;;;;;;;;;;4932304;29;2200;-58
2023/05/07 03:08:36;;;;;;;;;;;;;;;;;;4933780;29;1822;-57
2023/05/07 03:11:03;;;;;;;;;;;;;;;;;;4933460;29;1320;-58
2023/05/07 03:13:30;;;;;;;;;;;;;;;;;;4933952;29;1814;-54
2023/05/07 03:15:58;;;;;;;;;;;;;;;;;;4932511;29;1910;-59
2023/05/07 03:18:25;;;;;;;;;;;;;;;;;;4933799;29;2080;-59
2023/05/07 03:20:53;;;;;;;;;;;;;;;;;;4934055;29;2106;-59
2023/05/07 03:23:20;;;;;;;;;;;;;;;;;;4932358;29;2029;-59
2023/05/07 03:25:49;;;;;;;;;;;;;;;;;;4927398;29;2166;-59
2023/05/07 03:28:17;;;;;;;;;;;;;;;;;;4914798;29;2130;-59
2023/05/07 03:30:53;;;;;;;;;;;;;;;;;;4914764;29;2681;-56
2023/05/07 03:33:21;;;;;;;;;;;;;;;;;;4913366;29;1758;-59
2023/05/07 03:35:49;;;;;;;;;;;;;;;;;;4914410;29;1967;-55
2023/05/07 03:38:20;;;;;;;;;;;;;;;;;;4913259;29;1973;-59
2023/05/07 03:40:50;;;;;;;;;;;;;;;;;;4913379;29;2193;-57
2023/05/07 03:43:17;;;;;;;;;;;;;;;;;;4914049;29;1748;-59
2023/05/07 03:45:49;;;;;;;;;;;;;;;;;;4928740;29;1913;-59
2023/05/07 03:48:24;;;;;;;;;;;;;;;;;;4936126;29;2108;-60
2023/05/07 03:50:54;;;;;;;;;;;;;;;;;;4936171;29;2090;-54
2023/05/07 03:53:21;;;;;;;;;;;;;;;;;;4935902;29;2416;-57
2023/05/07 03:55:49;;;;;;;;;;;;;;;;;;4935863;29;1919;-56
2023/05/07 03:58:17;;;;;;;;;;;;;;;;;;4935568;29;2289;-59
2023/05/07 04:00:44;;;;;;;;;;;;;;;;;;4935654;29;1680;-55
2023/05/07 04:03:19;;;;;;;;;;;;;;;;;;4935660;29;1789;-60
2023/05/07 04:05:46;;;;;;;;;;;;;;;;;;4935496;29;2386;-45
2023/05/07 04:08:14;;;;;;;;;;;;;;;;;;4936698;29;1481;-59
2023/05/07 04:10:46;;;;;;;;;;;;;;;;;;4935281;29;2020;-54
2023/05/07 04:13:14;;;;;;;;;;;;;;;;;;4935461;29;1898;-58
2023/05/07 04:15:41;;;;;;;;;;;;;;;;;;4935266;29;1995;-54
2023/05/07 04:18:11;;;;;;;;;;;;;;;;;;4935217;29;2125;-59
2023/05/07 04:20:42;;;;;;;;;;;;;;;;;;4935186;29;2358;-55
2023/05/07 04:23:12;;;;;;;;;;;;;;;;;;4935253;29;1500;-56
2023/05/07 04:25:40;;;;;;;;;;;;;;;;;;4935383;29;1917;-59
2023/05/07 04:28:19;;;;;;;;;;;;;;;;;;4935275;29;2129;-51
2023/05/07 04:30:47;;;;;;;;;;;;;;;;;;4935277;29;2068;-59
2023/05/07 04:33:17;;;;;;;;;;;;;;;;;;4936238;29;1462;-60
2023/05/07 04:35:46;;;;;;;;;;;;;;;;;;4935022;29;2371;-54
2023/05/07 04:38:14;;;;;;;;;;;;;;;;;;4934952;29;2275;-57
2023/05/07 04:40:42;;;;;;;;;;;;;;;;;;4934974;29;2300;-59
2023/05/07 04:43:15;;;;;;;;;;;;;;;;;;4936146;29;1917;-56
2023/05/07 04:45:49;;;;;;;;;;;;;;;;;;4934929;29;1793;-59
2023/05/07 04:48:19;;;;;;;;;;;;;;;;;;4934884;29;1656;-60
2023/05/07 04:50:48;;;;;;;;;;;;;;;;;;4934931;29;1879;-59
2023/05/07 04:53:17;;;;;;;;;;;;;;;;;;4934741;29;1515;-54
2023/05/07 04:55:45;;;;;;;;;;;;;;;;;;4934222;29;2579;-60
2023/05/07 04:58:12;;;;;;;;;;;;;;;;;;4934679;29;2286;-60
2023/05/07 05:00:42;;;;;;;;;;;;;;;;;;4934431;29;2099;-59
2023/05/07 05:03:10;;;;;;;;;;;;;;;;;;4935944;29;1953;-59
2023/05/07 05:05:38;;;;;;;;;;;;;;;;;;4935845;29;1731;-58
2023/05/07 05:08:06;;;;;;;;;;;;;;;;;;4934405;29;2208;-56
2023/05/07 05:10:36;;;;;;;;;;;;;;;;;;4934083;29;1721;-53
2023/05/07 05:13:05;;;;;;;;;;;;;;;;;;4934384;29;1875;-55
2023/05/07 05:15:32;;;;;;;;;;;;;;;;;;4934691;29;1842;-59
2023/05/07 05:18:01;;;;;;;;;;;;;;;;;;4934474;29;1922;-59
2023/05/07 05:20:29;;;;;;;;;;;;;;;;;;4934510;29;2271;-59
2023/05/07 05:22:56;;;;;;;;;;;;;;;;;;4935522;29;1884;-58
2023/05/07 05:25:24;;;;;;;;;;;;;;;;;;4935433;29;2048;-54
2023/05/07 05:27:51;;;;;;;;;;;;;;;;;;4934054;29;1590;-57
2023/05/07 05:30:20;;;;;;;;;;;;;;;;;;4935291;29;1465;-59
2023/05/07 05:32:49;;;;;;;;;;;;;;;;;;4934030;29;2080;-56
2023/05/07 05:35:16;;;;;;;;;;;;;;;;;;4934242;29;2151;-43
2023/05/07 05:37:43;;;;;;;;;;;;;;;;;;4933746;29;2048;-59
2023/05/07 05:40:11;;;;;;;;;;;;;;;;;;4933985;29;1843;-44
2023/05/07 05:42:39;;;;;;;;;;;;;;;;;;4934078;29;2103;-50
2023/05/07 05:45:09;;;;;;;;;;;;;;;;;;4933754;29;1855;-50
2023/05/07 05:47:38;;;;;;;;;;;;;;;;;;4933849;29;2084;-52
2023/05/07 05:50:06;;;;;;;;;;;;;;;;;;4934210;29;2091;-49
2023/05/07 05:52:33;;;;;;;;;;;;;;;;;;4934038;29;1990;-57
2023/05/07 05:55:01;;;;;;;;;;;;;;;;;;4933634;29;1590;-47
2023/05/07 05:57:29;;;;;;;;;;;;;;;;;;4933686;29;2413;-59
2023/05/07 05:59:56;;;;;;;;;;;;;;;;;;4935079;29;1264;-56
2023/05/07 06:02:24;;;;;;;;;;;;;;;;;;4933717;29;2146;-52
2023/05/07 06:04:51;;;;;;;;;;;;;;;;;;4933681;29;2186;-50
2023/05/07 06:07:21;;;;;;;;;;;;;;;;;;4932797;29;2214;-57
2023/05/07 06:09:49;;;;;;;;;;;;;;;;;;4918102;29;2084;-56
2023/05/07 06:12:16;;;;;;;;;;;;;;;;;;4933213;29;2178;-45
2023/05/07 06:14:43;;;;;;;;;;;;;;;;;;4914938;29;1931;-54
2023/05/07 06:17:11;;;;;;;;;;;;;;;;;;4914028;29;2141;-48
2023/05/07 06:19:39;;;;;;;;;;;;;;;;;;4913831;29;1900;-50
2023/05/07 06:22:07;;;;;;;;;;;;;;;;;;4914436;29;2300;-54
2023/05/07 06:24:34;;;;;;;;;;;;;;;;;;4914456;29;2057;-57
2023/05/07 06:27:04;;;;;;;;;;;;;;;;;;4915680;29;2042;-47
2023/05/07 06:29:33;;;;;;;;;;;;;;;;;;4914027;29;1924;-59
2023/05/07 06:32:08;;;;;;;;;;;;;;;;;;4914303;29;2124;-54
2023/05/07 06:34:36;;;;;;;;;;;;;;;;;;4914279;29;1969;-56
2023/05/07 06:37:03;;;;;;;;;;;;;;;;;;4913955;29;2062;-58
2023/05/07 06:39:46;;;;;;;;;;;;;;;;;;4913875;29;2182;-56
2023/05/07 06:42:14;;;;;;;;;;;;;;;;;;4913582;29;1871;-60
2023/05/07 06:44:43;;;;;;;;;;;;;;;;;;4913897;29;2098;-59
2023/05/07 06:47:12;;;;;;;;;;;;;;;;;;4913960;29;1829;-59
2023/05/07 06:49:44;;;;;;;;;;;;;;;;;;4913745;29;1876;-55
2023/05/07 06:52:15;;;;;;;;;;;;;;;;;;4913875;29;1511;-56
2023/05/07 06:54:42;;;;;;;;;;;;;;;;;;4928929;29;2201;-45
2023/05/07 06:57:12;;;;;;;;;;;;;;;;;;4932623;29;1907;-56
2023/05/07 06:59:40;;;;;;;;;;;;;;;;;;4932759;29;2356;-48
2023/05/07 07:02:08;;;;;;;;;;;;;;;;;;4934339;29;1686;-48
2023/05/07 07:04:35;;;;;;;;;;;;;;;;;;4932765;29;2030;-55
2023/05/07 07:07:07;;;;;;;;;;;;;;;;;;4932820;29;1979;-55
2023/05/07 07:09:35;;;;;;;;;;;;;;;;;;4932607;29;1845;-55
2023/05/07 07:12:04;;;;;;;;;;;;;;;;;;4932517;29;2236;-54
2023/05/07 07:14:33;;;;;;;;;;;;;;;;;;4932630;29;2094;-56
2023/05/07 07:17:01;;;;;;;;;;;;;;;;;;4932819;29;1967;-57
2023/05/07 07:19:28;;;;;;;;;;;;;;;;;;4936653;29;1971;-54
2023/05/07 07:21:57;;;;;;;;;;;;;;;;;;4936427;29;1781;-51
2023/05/07 07:24:24;;;;;;;;;;;;;;;;;;4936256;29;1993;-52
2023/05/07 07:26:55;;;;;;;;;;;;;;;;;;4936373;29;2158;-56
2023/05/07 07:29:26;;;;;;;;;;;;;;;;;;4936316;29;2014;-57
2023/05/07 07:31:54;;;;;;;;;;;;;;;;;;4936259;29;1923;-51
2023/05/07 07:34:22;;;;;;;;;;;;;;;;;;4936135;29;2082;-55
2023/05/07 07:36:50;;;;;;;;;;;;;;;;;;4937255;29;2096;-55
2023/05/07 07:39:18;;;;;;;;;;;;;;;;;;4936187;29;2313;-56
2023/05/07 07:41:48;;;;;;;;;;;;;;;;;;4937600;29;1643;-55
2023/05/07 07:44:17;;;;;;;;;;;;;;;;;;4936074;29;1339;-51
2023/05/07 07:46:50;;;;;;;;;;;;;;;;;;4936167;29;2062;-52
2023/05/07 07:49:19;;;;;;;;;;;;;;;;;;4935629;29;1759;-58
2023/05/07 07:51:47;;;;;;;;;;;;;;;;;;4935564;29;1932;-57
2023/05/07 07:54:15;;;;;;;;;;;;;;;;;;4935700;29;2173;-58
2023/05/07 07:56:43;;;;;;;;;;;;;;;;;;4935987;29;2177;-51
2023/05/07 07:59:14;;;;;;;;;;;;;;;;;;4936004;29;2014;-59
2023/05/07 08:01:42;;;;;;;;;;;;;;;;;;4937242;29;1691;-60
2023/05/07 08:04:11;;;;;;;;;;;;;;;;;;4937162;29;2258;-55
2023/05/07 08:06:45;;;;;;;;;;;;;;;;;;4936836;29;1278;-49
2023/05/07 08:09:14;;;;;;;;;;;;;;;;;;4937207;29;2170;-59
2023/05/07 08:11:42;;;;;;;;;;;;;;;;;;4936580;29;2291;-59
2023/05/07 08:14:12;;;;;;;;;;;;;;;;;;4935567;29;2032;-50
2023/05/07 08:16:40;;;;;;;;;;;;;;;;;;4935624;29;2400;-56
2023/05/07 08:19:10;;;;;;;;;;;;;;;;;;4935454;29;2057;-56
2023/05/07 08:21:39;;;;;;;;;;;;;;;;;;4935227;29;2037;-58
2023/05/07 08:24:11;;;;;;;;;;;;;;;;;;4935336;29;1821;-58
2023/05/07 08:26:43;;;;;;;;;;;;;;;;;;4936721;29;1969;-55
2023/05/07 08:29:15;;;;;;;;;;;;;;;;;;4935872;29;1611;-50
2023/05/07 08:31:43;;;;;;;;;;;;;;;;;;4936708;29;1989;-47
2023/05/07 08:34:11;;;;;;;;;;;;;;;;;;4934715;29;2003;-59
2023/05/07 08:36:42;;;;;;;;;;;;;;;;;;4935284;29;1991;-40
2023/05/07 08:39:14;;;;;;;;;;;;;;;;;;4935208;29;1836;-50
2023/05/07 08:41:44;;;;;;;;;;;;;;;;;;4915849;29;2103;-48
2023/05/07 08:44:13;;;;;;;;;;;;;;;;;;4917020;29;2160;-58
2023/05/07 08:46:43;;;;;;;;;;;;;;;;;;4915919;29;1559;-51
2023/05/07 08:49:11;;;;;;;;;;;;;;;;;;4915854;29;2068;-54
2023/05/07 08:51:38;;;;;;;;;;;;;;;;;;4916116;29;1576;-55
2023/05/07 08:54:07;;;;;;;;;;;;;;;;;;4926184;29;2165;-53
2023/05/07 08:56:34;;;;;;;;;;;;;;;;;;4934850;29;2071;-56
2023/05/07 08:59:03;;;;;;;;;;;;;;;;;;4935980;29;2037;-40
2023/05/07 09:01:30;;;;;;;;;;;;;;;;;;4934321;29;1996;-40
2023/05/07 09:03:58;;;;;;;;;;;;;;;;;;4935639;29;1845;-41
2023/05/07 09:06:27;;;;;;;;;;;;;;;;;;4934478;29;2000;-55
2023/05/07 09:08:55;;;;;;;;;;;;;;;;;;4935967;29;1999;-51
2023/05/07 09:11:27;;;;;;;;;;;;;;;;;;4934329;29;2076;-54
2023/05/07 09:14:01;;;;;;;;;;;;;;;;;;4934357;29;2011;-58
2023/05/07 09:16:33;;;;;;;;;;;;;;;;;;4935494;29;2291;-59
2023/05/07 09:19:01;;;;;;;;;;;;;;;;;;4934307;29;2270;-54
2023/05/07 09:21:29;;;;;;;;;;;;;;;;;;4934392;29;2119;-53
2023/05/07 09:23:59;;;;;;;;;;;;;;;;;;4935550;29;2139;-53
2023/05/07 09:26:35;;;;;;;;;;;;;;;;;;4935613;29;2040;-41
2023/05/07 09:29:04;;;;;;;;;;;;;;;;;;4934232;29;2063;-41
2023/05/07 09:31:32;;;;;;;;;;;;;;;;;;4933891;29;2014;-41
2023/05/07 09:34:00;;;;;;;;;;;;;;;;;;4935412;29;2056;-41
2023/05/07 09:36:31;;;;;;;;;;;;;;;;;;4934239;29;1693;-41
2023/05/07 09:39:00;;;;;;;;;;;;;;;;;;4933831;29;1907;-41
2023/05/07 09:41:30;;;;;;;;;;;;;;;;;;4934061;29;1841;-41
2023/05/07 09:44:05;;;;;;;;;;;;;;;;;;4935073;29;2045;-41
2023/05/07 09:46:38;;;;;;;;;;;;;;;;;;4933621;29;1847;-56
2023/05/07 09:49:21;;;;;;;;;;;;;;;;;;4933869;29;2035;-55
2023/05/07 09:51:52;;;;;;;;;;;;;;;;;;4933886;29;1377;-47
2023/05/07 09:54:24;;;;;;;;;;;;;;;;;;4933329;29;1904;-58
2023/05/07 09:56:56;;;;;;;;;;;;;;;;;;4933623;29;1662;-48
2023/05/07 09:59:27;;;;;;;;;;;;;;;;;;4933474;29;2082;-59
2023/05/07 10:02:01;;;;;;;;;;;;;;;;;;4933481;29;1684;-55
2023/05/07 10:04:33;;;;;;;;;;;;;;;;;;4933546;29;1710;-58
2023/05/07 10:07:01;;;;;;;;;;;;;;;;;;4933301;29;1712;-59
2023/05/07 10:09:30;;;;;;;;;;;;;;;;;;4934897;29;1734;-59
2023/05/07 10:11:58;;;;;;;;;;;;;;;;;;4933267;29;1938;-54
2023/05/07 10:14:27;;;;;;;;;;;;;;;;;;4934483;29;2213;-52
2023/05/07 10:16:56;;;;;;;;;;;;;;;;;;4933328;29;2087;-51
2023/05/07 10:19:23;;;;;;;;;;;;;;;;;;4934316;29;1964;-45
2023/05/07 10:21:59;;;;;;;;;;;;;;;;;;4934737;29;1979;-43
2023/05/07 10:24:33;;;;;;;;;;;;;;;;;;4933262;29;1584;-59
2023/05/07 10:27:05;;;;;;;;;;;;;;;;;;4933017;29;1884;-60
2023/05/07 10:29:36;;;;;;;;;;;;;;;;;;4917579;29;2623;-41
2023/05/07 10:32:34;;;;;;;;;;;;;;;;;;4934304;29;2164;-41
2023/05/07 10:35:04;;;;;;;;;;;;;;;;;;4923268;29;2147;-57
2023/05/07 10:37:32;;;;;;;;;;;;;;;;;;4932845;29;1911;-59
2023/05/07 10:40:00;;;;;;;;;;;;;;;;;;4917510;29;1625;-40
2023/05/07 10:42:30;;;;;;;;;;;;;;;;;;4932821;29;1868;-56
2023/05/07 10:44:57;;;;;;;;;;;;;;;;;;4932855;29;1842;-59
2023/05/07 10:47:29;;;;;;;;;;;;;;;;;;4932821;29;2129;-58
2023/05/07 10:50:05;;;;;;;;;;;;;;;;;;4933071;29;2336;-57
2023/05/07 10:52:37;;;;;;;;;;;;;;;;;;4932295;29;2037;-51
2023/05/07 10:55:21;;;;;;;;;;;;;;;;;;4933368;29;1847;-59
2023/05/07 10:58:18;;;;;;;;;;;;;;;;;;4934065;29;1954;-58
2023/05/07 11:01:12;;;;;;;;;;;;;;;;;;4932420;29;1760;-54
2023/05/07 11:04:01;;;;;;;;;;;;;;;;;;4932696;29;2066;-54
2023/05/07 11:06:31;;;;;;;;;;;;;;;;;;4932286;29;2341;-58
2023/05/07 11:09:04;;;;;;;;;;;;;;;;;;4932451;29;1774;-59
2023/05/07 11:11:47;;;;;;;;;;;;;;;;;;4932345;29;1599;-57
2023/05/07 11:14:46;;;;;;;;;;;;;;;;;;4940116;28;1850;-53
2023/05/07 11:17:21;;;;;;;;;;;;;;;;;;4931742;29;2158;-59
2023/05/07 11:19:56;;;;;;;;;;;;;;;;;;4932722;29;1817;-54
2023/05/07 11:22:39;;;;;;;;;;;;;;;;;;4932363;28;1879;-58
2023/05/07 11:25:19;;;;;;;;;;;;;;;;;;4933587;29;1714;-53
2023/05/07 11:27:52;;;;;;;;;;;;;;;;;;4932210;29;1734;-59
2023/05/07 11:30:19;;;;;;;;;;;;;;;;;;4932396;29;2053;-59
2023/05/07 11:32:47;;;;;;;;;;;;;;;;;;4933613;28;1986;-55
2023/05/07 11:35:16;;;;;;;;;;;;;;;;;;4932287;29;1731;-55
2023/05/07 11:37:46;;;;;;;;;;;;;;;;;;4932359;28;2094;-56
2023/05/07 11:40:15;;;;;;;;;;;;;;;;;;4932169;29;1680;-42
2023/05/07 11:42:45;;;;;;;;;;;;;;;;;;4933465;29;2159;-41
2023/05/07 11:45:12;;;;;;;;;;;;;;;;;;4933486;29;2347;-41
2023/05/07 11:47:41;;;;;;;;;;;;;;;;;;4933521;28;1514;-60
2023/05/07 11:50:10;;;;;;;;;;;;;;;;;;4933701;29;2278;-41
2023/05/07 11:52:39;;;;;;;;;;;;;;;;;;4933737;28;1937;-40
2023/05/07 11:55:06;;;;;;;;;;;;;;;;;;4933346;28;1899;-41
2023/05/07 11:57:34;;;;;;;;;;;;;;;;;;4932389;29;1695;-46
2023/05/07 12:00:03;;;;;;;;;;;;;;;;;;4933512;29;2107;-40
2023/05/07 12:02:38;;;;;;;;;;;;;;;;;;4933459;29;1900;-59
2023/05/07 12:05:06;;;;;;;;;;;;;;;;;;4935613;29;1697;-41
2023/05/07 12:07:36;;;;;;;;;;;;;;;;;;4937218;29;1867;-57
2023/05/07 12:10:06;;;;;;;;;;;;;;;;;;4936863;29;1622;-40
2023/05/07 12:12:41;;;;;;;;;;;;;;;;;;4935682;29;1749;-55
2023/05/07 12:15:09;;;;;;;;;;;;;;;;;;4936871;29;1912;-41
2023/05/07 12:17:37;;;;;;;;;;;;;;;;;;4936911;29;2009;-41
2023/05/07 12:20:05;;;;;;;;;;;;;;;;;;4936456;29;2220;-43
2023/05/07 12:22:33;;;;;;;;;;;;;;;;;;4935327;29;2652;-40
2023/05/07 12:25:00;;;;;;;;;;;;;;;;;;4936898;29;1751;-52
2023/05/07 12:27:27;;;;;;;;;;;;;;;;;;4936715;29;1440;-41
2023/05/07 12:29:57;;;;;;;;;;;;;;;;;;4936681;29;1881;-42
2023/05/07 12:32:24;;;;;;;;;;;;;;;;;;4936938;29;1794;-58
2023/05/07 12:34:52;;;;;;;;;;;;;;;;;;4936238;29;1828;-40
2023/05/07 12:37:25;;;;;;;;;;;;;;;;;;4935330;29;1929;-57
2023/05/07 12:40:06;;;;;;;;;;;;;;;;;;4936156;29;2139;-50
2023/05/07 12:42:35;;;;;;;;;;;;;;;;;;4936408;29;2103;-40
2023/05/07 12:45:18;;;;;;;;;;;;;;;;;;4936253;29;2212;-40
2023/05/07 12:47:46;;;;;;;;;;;;;;;;;;4936132;29;1441;-55
2023/05/07 12:50:14;;;;;;;;;;;;;;;;;;4936297;29;2090;-41
2023/05/07 12:52:42;;;;;;;;;;;;;;;;;;4934876;29;2398;-40
2023/05/07 12:55:12;;;;;;;;;;;;;;;;;;4936096;29;1877;-40
2023/05/07 12:57:40;;;;;;;;;;;;;;;;;;4936261;29;2028;-43
2023/05/07 13:00:08;;;;;;;;;;;;;;;;;;4935921;29;1922;-40
2023/05/07 13:02:39;;;;;;;;;;;;;;;;;;4935842;29;2085;-40
2023/05/07 13:05:07;;;;;;;;;;;;;;;;;;4936135;29;2145;-40
2023/05/07 13:07:36;;;;;;;;;;;;;;;;;;4936002;29;2204;-41
2023/05/07 13:10:04;;;;;;;;;;;;;;;;;;4936086;29;2145;-41
2023/05/07 13:12:31;;;;;;;;;;;;;;;;;;4935714;29;1966;-40
2023/05/07 13:14:58;;;;;;;;;;;;;;;;;;4935666;29;2133;-41
2023/05/07 13:17:26;;;;;;;;;;;;;;;;;;4935857;29;2099;-58
2023/05/07 13:19:53;;;;;;;;;;;;;;;;;;4935802;29;2129;-40
2023/05/07 13:22:20;;;;;;;;;;;;;;;;;;4935818;29;1968;-40
2023/05/07 13:24:47;;;;;;;;;;;;;;;;;;4935586;29;2062;-41
2023/05/07 13:27:15;;;;;;;;;;;;;;;;;;4935744;29;1740;-40
2023/05/07 13:29:42;;;;;;;;;;;;;;;;;;4935696;29;2032;-40
2023/05/07 13:32:09;;;;;;;;;;;;;;;;;;4935429;29;1933;-45
2023/05/07 13:34:36;;;;;;;;;;;;;;;;;;4935485;29;1504;-41
2023/05/07 13:37:04;;;;;;;;;;;;;;;;;;4935434;29;1842;-50
2023/05/07 13:39:31;;;;;;;;;;;;;;;;;;4935313;29;1984;-41
2023/05/07 13:41:58;;;;;;;;;;;;;;;;;;4935155;29;1801;-59
2023/05/07 13:44:26;;;;;;;;;;;;;;;;;;4934969;29;1937;-41
2023/05/07 13:46:53;;;;;;;;;;;;;;;;;;4935156;29;1785;-40
2023/05/07 13:49:20;;;;;;;;;;;;;;;;;;4935159;29;2112;-44
2023/05/07 13:51:47;;;;;;;;;;;;;;;;;;4935118;29;2007;-43
2023/05/07 13:54:15;;;;;;;;;;;;;;;;;;4934723;29;2007;-40
2023/05/07 13:56:42;;;;;;;;;;;;;;;;;;4934881;29;1567;-49
2023/05/07 13:59:10;;;;;;;;;;;;;;;;;;4934697;29;2061;-41
2023/05/07 14:01:37;;;;;;;;;;;;;;;;;;4935003;29;2137;-40
2023/05/07 14:04:04;;;;;;;;;;;;;;;;;;4935153;29;1815;-50
2023/05/07 14:06:31;;;;;;;;;;;;;;;;;;4934945;29;2010;-41
2023/05/07 14:08:59;;;;;;;;;;;;;;;;;;4934886;29;1951;-59
2023/05/07 14:11:27;;;;;;;;;;;;;;;;;;4934716;29;1830;-57
2023/05/07 14:13:54;;;;;;;;;;;;;;;;;;4934693;29;1896;-59
2023/05/07 14:16:21;;;;;;;;;;;;;;;;;;4934767;29;2097;-57
2023/05/07 14:18:48;;;;;;;;;;;;;;;;;;4934265;29;1911;-56
2023/05/07 14:21:15;;;;;;;;;;;;;;;;;;4934544;29;2142;-59
2023/05/07 14:23:43;;;;;;;;;;;;;;;;;;4934746;29;2071;-49
2023/05/07 14:26:10;;;;;;;;;;;;;;;;;;4934261;29;1828;-59
2023/05/07 14:28:39;;;;;;;;;;;;;;;;;;4934277;29;2054;-57
2023/05/07 14:31:06;;;;;;;;;;;;;;;;;;4934651;29;1993;-59
2023/05/07 14:33:34;;;;;;;;;;;;;;;;;;4934803;29;2049;-58
2023/05/07 14:36:01;;;;;;;;;;;;;;;;;;4934565;29;2516;-51
2023/05/07 14:38:28;;;;;;;;;;;;;;;;;;4934329;29;1958;-57
2023/05/07 14:40:56;;;;;;;;;;;;;;;;;;4934558;29;1696;-60
2023/05/07 14:43:23;;;;;;;;;;;;;;;;;;4933031;29;2317;-56
2023/05/07 14:45:50;;;;;;;;;;;;;;;;;;4934398;29;1968;-59
2023/05/07 14:48:17;;;;;;;;;;;;;;;;;;4934198;29;1712;-60
2023/05/07 14:50:48;;;;;;;;;;;;;;;;;;4932794;29;2566;-59
2023/05/07 14:53:15;;;;;;;;;;;;;;;;;;4934192;29;1936;-56
2023/05/07 14:55:42;;;;;;;;;;;;;;;;;;4934182;29;2284;-60
2023/05/07 14:58:10;;;;;;;;;;;;;;;;;;4934194;29;1979;-48
2023/05/07 15:00:37;;;;;;;;;;;;;;;;;;4934096;29;1986;-51
2023/05/07 15:03:06;;;;;;;;;;;;;;;;;;4934418;29;2180;-59
2023/05/07 15:05:34;;;;;;;;;;;;;;;;;;4934244;29;1703;-56
2023/05/07 15:08:03;;;;;;;;;;;;;;;;;;4934020;29;2597;-59
2023/05/07 15:10:30;;;;;;;;;;;;;;;;;;4933915;29;1613;-56
2023/05/07 15:12:58;;;;;;;;;;;;;;;;;;4932386;29;2244;-40
2023/05/07 15:15:26;;;;;;;;;;;;;;;;;;4933893;29;2093;-40
2023/05/07 15:17:54;;;;;;;;;;;;;;;;;;4932635;29;1925;-46
2023/05/07 15:20:21;;;;;;;;;;;;;;;;;;4933855;29;1918;-39
2023/05/07 15:22:48;;;;;;;;;;;;;;;;;;4933812;29;2038;-45
2023/05/07 15:25:16;;;;;;;;;;;;;;;;;;4933594;29;1780;-59
2023/05/07 15:27:44;;;;;;;;;;;;;;;;;;4933562;29;1986;-53
2023/05/07 15:30:12;;;;;;;;;;;;;;;;;;4932730;29;1647;-56
2023/05/07 15:32:39;;;;;;;;;;;;;;;;;;4933752;29;1839;-43
2023/05/07 15:35:06;;;;;;;;;;;;;;;;;;4934139;29;1870;-40
2023/05/07 15:37:34;;;;;;;;;;;;;;;;;;4933733;29;2104;-40
2023/05/07 15:40:06;;;;;;;;;;;;;;;;;;4935644;29;2085;-40
2023/05/07 15:42:33;;;;;;;;;;;;;;;;;;4937545;29;1653;-40
2023/05/07 15:45:01;;;;;;;;;;;;;;;;;;4937591;29;2333;-41
2023/05/07 15:47:32;;;;;;;;;;;;;;;;;;4937403;29;1949;-40
2023/05/07 15:49:59;;;;;;;;;;;;;;;;;;4937477;29;2041;-40
2023/05/07 15:52:28;;;;;;;;;;;;;;;;;;4937497;29;2027;-41
2023/05/07 15:54:55;;;;;;;;;;;;;;;;;;4936732;29;1469;-58
2023/05/07 15:57:23;;;;;;;;;;;;;;;;;;4937130;29;1490;-58
2023/05/07 15:59:50;;;;;;;;;;;;;;;;;;4937131;29;1969;-50
2023/05/07 16:02:17;;;;;;;;;;;;;;;;;;4936949;29;1970;-51
2023/05/07 16:04:45;;;;;;;;;;;;;;;;;;4937198;29;1926;-51
2023/05/07 16:07:12;;;;;;;;;;;;;;;;;;4937210;29;1515;-58
2023/05/07 16:09:40;;;;;;;;;;;;;;;;;;4937081;29;2142;-51
2023/05/07 16:12:10;;;;;;;;;;;;;;;;;;4937077;29;1971;-59
2023/05/07 16:14:37;;;;;;;;;;;;;;;;;;4936917;29;2096;-59
2023/05/07 16:17:05;;;;;;;;;;;;;;;;;;4936732;29;1881;-55
2023/05/07 16:19:32;;;;;;;;;;;;;;;;;;4936780;29;2172;-56
2023/05/07 16:21:59;;;;;;;;;;;;;;;;;;4936661;29;1942;-51
2023/05/07 16:24:26;;;;;;;;;;;;;;;;;;4936710;29;1477;-56
2023/05/07 16:26:54;;;;;;;;;;;;;;;;;;4936413;29;2019;-56
2023/05/07 16:29:22;;;;;;;;;;;;;;;;;;4936566;29;1840;-57
2023/05/07 16:31:49;;;;;;;;;;;;;;;;;;4936729;29;2057;-58
2023/05/07 16:34:16;;;;;;;;;;;;;;;;;;4936349;29;1734;-52
2023/05/07 16:36:44;;;;;;;;;;;;;;;;;;4936622;29;1915;-58
2023/05/07 16:39:11;;;;;;;;;;;;;;;;;;4936653;29;1958;-57
2023/05/07 16:41:38;;;;;;;;;;;;;;;;;;4936710;29;1999;-51
2023/05/07 16:44:06;;;;;;;;;;;;;;;;;;4936342;29;1662;-55
2023/05/07 16:46:33;;;;;;;;;;;;;;;;;;4936457;29;1972;-54
2023/05/07 16:49:00;;;;;;;;;;;;;;;;;;4936409;29;2151;-57
2023/05/07 16:51:28;;;;;;;;;;;;;;;;;;4935151;29;1982;-58
2023/05/07 16:53:55;;;;;;;;;;;;;;;;;;4936261;29;1835;-55
2023/05/07 16:56:22;;;;;;;;;;;;;;;;;;4935980;29;2001;-60
2023/05/07 16:58:49;;;;;;;;;;;;;;;;;;4936277;29;1751;-58
2023/05/07 17:01:17;;;;;;;;;;;;;;;;;;4936309;29;1911;-59
2023/05/07 17:03:45;;;;;;;;;;;;;;;;;;4936095;29;2102;-52
2023/05/07 17:06:13;;;;;;;;;;;;;;;;;;4934973;29;1993;-58
2023/05/07 17:08:41;;;;;;;;;;;;;;;;;;4935975;29;1671;-53
2023/05/07 17:11:09;;;;;;;;;;;;;;;;;;4935730;29;1785;-54
2023/05/07 17:13:36;;;;;;;;;;;;;;;;;;4936011;29;1396;-56
2023/05/07 17:16:03;;;;;;;;;;;;;;;;;;4935661;29;2208;-51